Time;durP1;ratioP1;P1;durP2;ratioP2;P2;SDS_P1;SDS_P2;PMS_P1;PMS_P2;Temp;Humidity;BMP_temperature;BMP_pressure;BME280_temperature;BME280_humidity;BME280_pressure;Samples;Min_cycle;Max_cycle;Signal;HPM_P1;HPM_P2
2021/06/19 00:00:09;;;;;;;16.95;6.97;;;;;;;16.57;61.73;100950.28;4860238;29;20046;-75
2021/06/19 00:02:35;;;;;;;15.40;7.18;;;;;;;16.47;61.86;100949.53;4859642;29;20466;-76
2021/06/19 00:05:00;;;;;;;18.77;7.20;;;;;;;16.51;62.05;100966.16;4860581;29;20052;-77
2021/06/19 00:07:27;;;;;;;15.77;7.13;;;;;;;16.44;62.09;100969.75;4831998;29;20186;-78
2021/06/19 00:09:52;;;;;;;14.05;7.00;;;;;;;16.42;62.31;100968.00;4843663;29;20077;-77
2021/06/19 00:12:19;;;;;;;17.85;6.95;;;;;;;16.41;62.42;100965.41;4859727;29;20403;-76
2021/06/19 00:14:45;;;;;;;18.42;7.90;;;;;;;16.40;62.55;100961.91;4860209;29;20493;-78
2021/06/19 00:17:12;;;;;;;15.82;7.25;;;;;;;16.48;62.48;100967.03;4819668;29;20037;-77
2021/06/19 00:19:39;;;;;;;15.43;7.90;;;;;;;16.43;62.56;100958.38;4841681;29;20174;-77
2021/06/19 00:22:05;;;;;;;13.10;7.63;;;;;;;16.47;62.70;100967.94;4841670;29;20040;-76
2021/06/19 00:24:36;;;;;;;11.82;7.35;;;;;;;16.35;62.83;100947.97;4825223;29;20547;-78
2021/06/19 00:27:03;;;;;;;13.45;7.55;;;;;;;16.48;62.91;100966.19;4824783;29;20046;-77
2021/06/19 00:29:30;;;;;;;13.32;6.85;;;;;;;16.44;62.69;100964.50;4824760;29;20083;-77
2021/06/19 00:31:57;;;;;;;15.13;7.63;;;;;;;16.37;62.80;100966.34;4827977;29;20099;-77
2021/06/19 00:34:23;;;;;;;15.50;6.93;;;;;;;16.30;62.85;100951.56;4824690;29;20390;-77
2021/06/19 00:36:49;;;;;;;12.40;7.70;;;;;;;16.34;63.06;100963.75;4812711;29;20140;-75
2021/06/19 00:39:15;;;;;;;12.70;6.88;;;;;;;16.22;62.79;100944.66;4859015;29;20080;-77
2021/06/19 00:41:41;;;;;;;11.38;6.53;;;;;;;16.32;63.28;100973.41;4844002;29;20106;-76
2021/06/19 00:44:16;;;;;;;11.10;6.72;;;;;;;16.34;63.03;100974.28;4860404;29;20080;-78
2021/06/19 00:46:42;;;;;;;14.95;6.88;;;;;;;16.30;63.24;100978.72;4838438;29;20066;-79
2021/06/19 00:49:09;;;;;;;12.27;7.07;;;;;;;16.29;63.42;100976.97;4841382;29;20045;-77
2021/06/19 00:51:36;;;;;;;11.23;6.90;;;;;;;16.12;63.17;100958.81;4841737;29;20562;-77
2021/06/19 00:54:04;;;;;;;11.68;7.50;;;;;;;16.16;63.19;100971.00;4839676;29;20075;-79
2021/06/19 00:56:32;;;;;;;12.30;6.90;;;;;;;16.18;63.39;100982.38;4840981;29;20042;-76
2021/06/19 00:58:57;;;;;;;12.90;6.60;;;;;;;16.18;63.46;100990.25;4842079;29;20080;-76
2021/06/19 01:01:23;;;;;;;11.65;7.30;;;;;;;16.09;63.38;100971.97;4828855;29;20046;-75
2021/06/19 01:03:51;;;;;;;13.20;7.57;;;;;;;16.18;63.50;100978.84;4829269;29;20046;-78
2021/06/19 01:06:17;;;;;;;11.25;6.80;;;;;;;16.08;63.55;100972.84;4840056;29;20060;-77
2021/06/19 01:08:43;;;;;;;11.07;7.65;;;;;;;16.19;63.56;100986.72;4824522;29;20041;-75
2021/06/19 01:11:09;;;;;;;11.85;7.50;;;;;;;15.98;63.66;100945.88;4824983;29;20050;-76
2021/06/19 01:13:35;;;;;;;9.43;7.38;;;;;;;16.17;63.71;100980.63;4835599;29;20525;-77
2021/06/19 01:16:01;;;;;;;11.40;7.57;;;;;;;16.21;63.92;100974.44;4859332;29;20056;-77
2021/06/19 01:18:27;;;;;;;13.07;7.70;;;;;;;16.26;63.84;100975.22;4858070;29;20049;-77
2021/06/19 01:20:53;;;;;;;13.15;7.32;;;;;;;16.22;63.77;100964.81;4858128;29;20541;-77
2021/06/19 01:23:19;;;;;;;16.58;7.53;;;;;;;16.38;63.85;100981.22;4842515;29;20138;-78
2021/06/19 01:25:44;;;;;;;11.50;7.32;;;;;;;16.33;63.68;100973.38;4859461;29;20077;-77
2021/06/19 01:28:11;;;;;;;15.20;7.97;;;;;;;16.24;63.55;100963.03;4858633;29;20097;-76
2021/06/19 01:30:38;;;;;;;11.75;6.72;;;;;;;16.42;63.57;100985.53;4858154;29;20144;-79
2021/06/19 01:33:08;;;;;;;11.68;7.10;;;;;;;16.46;63.47;100988.97;4839932;29;20045;-76
2021/06/19 01:35:36;;;;;;;13.48;7.20;;;;;;;16.46;63.64;100995.09;4843001;29;20063;-79
2021/06/19 01:38:04;;;;;;;11.50;7.10;;;;;;;16.49;63.58;100992.44;4859378;29;20041;-79
2021/06/19 01:40:31;;;;;;;14.60;6.82;;;;;;;16.51;63.54;100998.53;4859875;29;20522;-78
2021/06/19 01:42:59;;;;;;;12.15;7.03;;;;;;;16.46;63.52;100989.84;4843302;29;20535;-76
2021/06/19 01:45:32;;;;;;;9.93;6.82;;;;;;;16.56;63.64;101003.72;4858413;29;20069;-78
2021/06/19 01:48:06;;;;;;;14.57;6.82;;;;;;;16.63;63.31;101000.09;4858233;29;20080;-78
2021/06/19 01:50:33;;;;;;;11.52;6.97;;;;;;;16.66;63.31;101000.06;4826836;29;20049;-77
2021/06/19 01:52:59;;;;;;;9.73;7.22;;;;;;;16.57;63.38;100981.81;4857972;29;20045;-78
2021/06/19 01:55:25;;;;;;;10.77;7.47;;;;;;;16.70;63.09;101001.75;4860978;29;20041;-77
2021/06/19 01:57:54;;;;;;;13.32;7.00;;;;;;;16.72;63.37;100996.47;4847469;29;20041;-77
2021/06/19 02:00:23;;;;;;;14.23;7.68;;;;;;;16.73;63.15;101003.47;4849386;29;20144;-75
2021/06/19 02:02:50;;;;;;;11.13;7.10;;;;;;;16.77;63.30;100994.66;4861565;29;20467;-77
2021/06/19 02:05:17;;;;;;;12.45;7.80;;;;;;;16.83;63.31;101004.19;4858138;29;20042;-77
2021/06/19 02:07:53;;;;;;;12.85;7.53;;;;;;;16.80;63.46;100981.47;4841589;29;20077;-76
2021/06/19 02:10:22;;;;;;;12.18;8.63;;;;;;;16.85;62.93;100984.88;4860040;29;20041;-76
2021/06/19 02:12:48;;;;;;;12.57;8.00;;;;;;;16.96;62.91;101003.16;4861164;29;20113;-78
2021/06/19 02:15:14;;;;;;;14.07;8.63;;;;;;;16.81;63.01;100971.78;4868302;29;20045;-76
2021/06/19 02:17:42;;;;;;;17.30;8.90;;;;;;;17.10;62.94;101002.91;4864982;29;20049;-76
2021/06/19 02:20:12;;;;;;;13.18;8.25;;;;;;;17.17;63.01;100996.66;4867598;29;20060;-76
2021/06/19 02:22:38;;;;;;;17.77;8.63;;;;;;;17.24;62.64;101004.44;4844683;29;20049;-77
2021/06/19 02:25:11;;;;;;;13.63;8.88;;;;;;;17.16;62.80;100983.53;4853359;29;20050;-75
2021/06/19 02:27:44;;;;;;;16.27;8.95;;;;;;;17.34;62.96;101002.50;4831582;29;20141;-75
2021/06/19 02:30:11;;;;;;;15.05;8.70;;;;;;;17.35;62.74;100998.97;4855946;29;20050;-78
2021/06/19 02:32:37;;;;;;;13.48;8.57;;;;;;;17.47;62.65;101014.53;4857758;29;20130;-76
2021/06/19 02:35:04;;;;;;;12.20;8.32;;;;;;;17.48;62.17;101008.38;4864076;29;20056;-79
2021/06/19 02:37:31;;;;;;;11.32;8.02;;;;;;;17.55;62.61;100998.59;4830837;29;20046;-77
2021/06/19 02:39:57;;;;;;;16.17;9.05;;;;;;;17.71;62.46;101009.72;4861928;29;20532;-77
2021/06/19 02:42:23;;;;;;;12.75;8.23;;;;;;;17.51;62.22;100971.50;4862400;29;20041;-79
2021/06/19 02:44:49;;;;;;;11.18;8.07;;;;;;;17.81;62.21;101011.28;4861211;29;20056;-77
2021/06/19 02:47:16;;;;;;;11.43;7.90;;;;;;;17.84;62.02;100998.06;4862172;29;20041;-77
2021/06/19 02:49:42;;;;;;;11.43;8.27;;;;;;;17.93;62.09;100997.00;4845175;29;20093;-77
2021/06/19 02:52:09;;;;;;;11.15;7.50;;;;;;;18.12;61.81;101002.75;4845351;29;20049;-78
2021/06/19 02:54:40;;;;;;;13.05;8.13;;;;;;;18.25;61.54;101010.41;4861940;29;20072;-80
2021/06/19 02:57:10;;;;;;;10.88;7.65;;;;;;;18.35;61.45;101006.66;4860463;29;20053;-78
2021/06/19 02:59:38;;;;;;;11.15;7.30;;;;;;;18.38;61.46;101000.47;4861875;29;20509;-76
2021/06/19 03:02:04;;;;;;;10.75;7.75;;;;;;;18.44;61.08;100992.41;4861507;29;20088;-78
2021/06/19 03:04:31;;;;;;;9.43;7.53;;;;;;;18.58;61.21;101014.06;4860745;29;20053;-77
2021/06/19 03:06:57;;;;;;;13.75;7.68;;;;;;;18.66;61.04;101006.84;4861675;29;20041;-78
2021/06/19 03:09:23;;;;;;;9.30;6.90;;;;;;;18.65;60.90;100980.53;4845394;29;20052;-78
2021/06/19 03:11:49;;;;;;;13.52;7.85;;;;;;;18.71;60.59;100979.50;4861535;29;20541;-80
2021/06/19 03:14:16;;;;;;;11.25;6.82;;;;;;;18.89;60.36;100994.88;4862331;29;20391;-77
2021/06/19 03:16:42;;;;;;;12.95;6.95;;;;;;;19.04;60.22;100987.53;4857258;29;20514;-79
2021/06/19 03:19:09;;;;;;;12.18;7.10;;;;;;;19.17;59.96;100983.66;4827215;29;20046;-79
2021/06/19 03:21:36;;;;;;;13.57;7.32;;;;;;;19.27;59.48;100989.56;4827062;29;20232;-80
2021/06/19 03:24:02;;;;;;;13.48;7.20;;;;;;;19.34;59.41;100998.19;4841717;29;20046;-77
2021/06/19 03:26:28;;;;;;;13.13;7.03;;;;;;;19.40;59.34;100985.72;4826416;29;20414;-76
2021/06/19 03:28:54;;;;;;;9.80;7.10;;;;;;;19.59;59.35;101000.16;4810417;29;20054;-75
2021/06/19 03:31:20;;;;;;;11.32;7.07;;;;;;;19.75;58.97;101001.44;4842742;29;20033;-80
2021/06/19 03:33:46;;;;;;;9.07;6.90;;;;;;;19.79;58.67;100984.63;4826992;29;20054;-80
2021/06/19 03:36:12;;;;;;;12.68;6.45;;;;;;;19.92;58.31;100987.81;4850091;29;20109;-77
2021/06/19 03:38:38;;;;;;;10.35;6.80;;;;;;;20.08;58.08;101004.09;4830783;29;20051;-80
2021/06/19 03:41:04;;;;;;;8.60;6.43;;;;;;;20.17;57.79;101001.19;4861923;29;20049;-78
2021/06/19 03:43:30;;;;;;;9.15;6.32;;;;;;;20.28;57.61;100998.22;4828214;29;20104;-78
2021/06/19 03:45:56;;;;;;;9.07;6.18;;;;;;;20.35;56.99;100987.44;4844655;29;20049;-77
2021/06/19 03:48:22;;;;;;;8.65;6.40;;;;;;;20.46;56.75;100996.75;4816201;29;20510;-76
2021/06/19 03:50:48;;;;;;;9.40;6.30;;;;;;;20.66;56.56;101003.19;4825813;29;20056;-78
2021/06/19 03:53:13;;;;;;;10.10;6.20;;;;;;;20.77;56.42;100994.94;4842140;29;20518;-78
2021/06/19 03:55:39;;;;;;;11.80;6.00;;;;;;;20.98;55.74;101003.09;4826006;29;20098;-78
2021/06/19 03:58:05;;;;;;;9.88;6.00;;;;;;;20.97;55.67;100981.06;4840888;29;20118;-78
2021/06/19 04:00:31;;;;;;;9.00;5.60;;;;;;;21.17;55.40;100976.88;4825703;29;20113;-79
2021/06/19 04:02:58;;;;;;;10.85;5.57;;;;;;;21.30;54.93;100972.88;4826345;29;20132;-79
2021/06/19 04:05:24;;;;;;;10.63;5.75;;;;;;;21.57;54.90;100996.63;4828947;29;20041;-76
2021/06/19 04:07:53;;;;;;;10.38;5.25;;;;;;;21.61;54.55;100977.13;4844543;29;20045;-79
2021/06/19 04:10:20;;;;;;;9.93;5.38;;;;;;;21.86;53.85;100991.22;4841937;29;20116;-78
2021/06/19 04:12:46;;;;;;;13.10;5.82;;;;;;;21.89;53.88;100983.16;4829870;29;20148;-76
2021/06/19 04:15:13;;;;;;;10.07;6.00;;;;;;;22.09;53.37;101004.47;4827726;29;20050;-77
2021/06/19 04:17:40;;;;;;;10.45;5.30;;;;;;;22.20;53.13;100993.47;4859185;29;20045;-78
2021/06/19 04:20:08;;;;;;;8.82;5.88;;;;;;;22.35;52.92;100997.31;4843818;29;20053;-78
2021/06/19 04:22:34;;;;;;;9.70;5.97;;;;;;;22.38;52.41;100972.47;4843807;29;20037;-76
2021/06/19 04:25:01;;;;;;;10.68;5.70;;;;;;;22.57;51.96;100993.81;4843712;29;20049;-77
2021/06/19 04:27:28;;;;;;;10.20;5.65;;;;;;;22.69;51.38;100993.34;4859196;29;20037;-79
2021/06/19 04:29:54;;;;;;;8.15;6.03;;;;;;;22.80;51.52;100990.25;4860566;29;20502;-76
2021/06/19 04:32:20;;;;;;;12.50;5.55;;;;;;;22.85;50.90;100988.25;4839394;29;20058;-77
2021/06/19 04:34:46;;;;;;;9.05;5.20;;;;;;;22.99;50.91;100994.78;4825387;29;20053;-77
2021/06/19 04:37:16;;;;;;;12.05;5.25;;;;;;;23.04;50.08;100981.31;4855434;29;20045;-78
2021/06/19 04:39:53;;;;;;;8.98;5.15;;;;;;;23.25;49.61;101000.81;4859400;29;20471;-81
2021/06/19 04:42:19;;;;;;;7.40;5.13;;;;;;;23.35;49.19;100978.22;4859492;29;20041;-79
2021/06/19 04:47:25;;;;;;;11.20;5.43;;;;;;;23.70;48.52;100986.44;4827853;29;20132;-78
2021/06/19 04:49:53;;;;;;;9.48;5.03;;;;;;;23.96;48.14;100997.66;4843359;29;20121;-79
2021/06/19 04:52:19;;;;;;;8.07;4.40;;;;;;;23.89;47.08;100969.66;4859038;29;20045;-79
2021/06/19 04:54:46;;;;;;;9.40;4.70;;;;;;;24.17;47.06;100997.59;4843214;29;20041;-80
2021/06/19 04:57:12;;;;;;;8.65;3.90;;;;;;;24.22;46.44;101000.91;4842480;29;20052;-79
2021/06/19 04:59:38;;;;;;;7.05;3.65;;;;;;;24.24;45.76;100982.25;4858520;29;20041;-79
2021/06/19 05:02:04;;;;;;;9.88;3.70;;;;;;;24.24;45.14;100974.28;4843071;29;20564;-79
2021/06/19 05:04:30;;;;;;;12.52;4.07;;;;;;;24.45;44.98;100998.97;4859611;29;20555;-79
2021/06/19 05:06:56;;;;;;;10.18;3.63;;;;;;;24.49;44.78;100973.94;4827118;29;20537;-77
2021/06/19 05:09:21;;;;;;;9.57;3.92;;;;;;;24.56;44.19;100975.38;4859858;29;20048;-81
2021/06/19 05:11:48;;;;;;;10.40;3.33;;;;;;;24.58;44.24;100968.19;4828276;29;20536;-79
2021/06/19 05:14:13;;;;;;;9.10;3.85;;;;;;;24.68;43.42;100963.25;4860027;29;20061;-79
2021/06/19 05:16:39;;;;;;;9.15;3.95;;;;;;;24.90;43.62;100979.03;4857005;29;20056;-79
2021/06/19 05:19:06;;;;;;;8.07;3.75;;;;;;;25.16;43.24;100976.00;4841063;29;20103;-77
2021/06/19 05:21:32;;;;;;;11.00;3.88;;;;;;;25.24;43.18;100977.31;4824755;29;20506;-77
2021/06/19 05:23:58;;;;;;;9.60;4.20;;;;;;;25.37;42.61;100974.00;4825316;29;20514;-78
2021/06/19 05:26:24;;;;;;;8.70;3.50;;;;;;;25.42;42.62;100959.53;4825493;29;20145;-81
2021/06/19 05:28:50;;;;;;;7.05;4.38;;;;;;;25.56;42.10;100977.44;4809807;29;20529;-79
2021/06/19 05:31:15;;;;;;;7.88;4.10;;;;;;;25.63;41.78;100961.97;4840825;29;20042;-78
2021/06/19 05:33:41;;;;;;;9.40;3.92;;;;;;;25.78;41.50;100965.63;4841264;29;20057;-80
2021/06/19 05:36:07;;;;;;;9.85;3.83;;;;;;;25.82;41.37;100961.00;4847965;29;20056;-80
2021/06/19 05:38:33;;;;;;;9.68;3.80;;;;;;;25.93;41.18;100965.75;4848386;29;20074;-78
2021/06/19 05:40:59;;;;;;;7.75;3.60;;;;;;;26.06;41.24;100966.78;4860835;29;20170;-79
2021/06/19 05:43:25;;;;;;;9.73;4.20;;;;;;;26.09;40.76;100958.59;4828196;29;20056;-78
2021/06/19 05:45:52;;;;;;;6.18;3.85;;;;;;;26.20;40.66;100958.03;4843948;29;20109;-78
2021/06/19 05:48:19;;;;;;;6.43;4.00;;;;;;;26.35;40.45;100966.97;4842817;29;20046;-80
2021/06/19 05:50:46;;;;;;;8.13;3.72;;;;;;;26.61;40.23;100965.47;4825486;29;20048;-77
2021/06/19 05:53:12;;;;;;;12.13;3.47;;;;;;;27.17;39.48;100956.03;4847211;29;20097;-76
2021/06/19 05:55:38;;;;;;;7.07;3.08;;;;;;;28.44;37.94;100940.06;4848652;29;20560;-80
2021/06/19 05:58:05;;;;;;;11.27;3.60;;;;;;;30.53;35.82;100946.06;4851917;29;20046;-76
2021/06/19 06:00:31;;;;;;;8.43;3.25;;;;;;;32.25;33.56;100938.00;4806576;29;20113;-78
2021/06/19 06:02:56;;;;;;;5.20;3.13;;;;;;;34.04;30.89;100926.28;4822990;29;20038;-79
2021/06/19 06:05:25;;;;;;;8.43;3.25;;;;;;;35.52;28.72;100918.00;4838317;29;20579;-78
2021/06/19 06:07:52;;;;;;;8.18;3.35;;;;;;;36.77;27.35;100935.34;4852352;29;20065;-78
2021/06/19 06:10:18;;;;;;;5.97;3.17;;;;;;;37.75;25.88;100911.63;4835310;29;20527;-76
2021/06/19 06:12:44;;;;;;;7.50;2.85;;;;;;;38.81;24.48;100913.75;4859767;29;20076;-82
2021/06/19 06:15:13;;;;;;;7.90;3.00;;;;;;;39.89;23.05;100897.91;4858668;29;20048;-78
2021/06/19 06:17:38;;;;;;;5.00;3.33;;;;;;;40.74;21.83;100917.81;4852683;29;20398;-80
2021/06/19 06:20:06;;;;;;;7.78;3.38;;;;;;;41.45;20.94;100897.44;4852400;29;20466;-78
2021/06/19 06:22:32;;;;;;;7.18;3.35;;;;;;;41.82;20.16;100916.56;4852382;29;20131;-77
2021/06/19 06:24:58;;;;;;;8.38;3.50;;;;;;;42.24;19.00;100903.09;4845965;29;20045;-80
2021/06/19 06:27:24;;;;;;;5.10;2.90;;;;;;;42.72;18.80;100906.03;4847605;29;20058;-79
2021/06/19 06:29:50;;;;;;;7.53;2.88;;;;;;;43.48;18.12;100917.19;4856827;29;20118;-81
2021/06/19 06:32:17;;;;;;;7.75;3.03;;;;;;;44.16;17.16;100908.09;4846942;29;20045;-79
2021/06/19 06:34:44;;;;;;;6.57;2.47;;;;;;;44.51;16.36;100904.31;4865445;29;20045;-77
2021/06/19 06:37:11;;;;;;;6.20;2.30;;;;;;;45.11;15.72;100906.13;4842783;29;20042;-77
2021/06/19 06:39:43;;;;;;;7.45;2.42;;;;;;;45.29;15.36;100853.25;4864361;29;20097;-81
2021/06/19 06:42:09;;;;;;;6.13;1.83;;;;;;;46.01;14.50;100898.91;4883825;29;20097;-80
2021/06/19 06:44:35;;;;;;;7.72;2.15;;;;;;;46.29;13.92;100901.25;4883291;29;20072;-77
2021/06/19 06:47:05;;;;;;;4.43;1.88;;;;;;;46.40;13.96;100907.91;4862964;29;20045;-79
2021/06/19 06:49:36;;;;;;;9.65;2.20;;;;;;;46.88;13.12;100909.16;4872285;29;20053;-81
2021/06/19 06:52:03;;;;;;;6.97;2.30;;;;;;;46.88;12.87;100889.91;4814922;29;20046;-79
2021/06/19 06:54:29;;;;;;;5.85;2.17;;;;;;;47.05;12.79;100905.78;4835470;29;20030;-81
2021/06/19 06:56:55;;;;;;;4.57;2.00;;;;;;;47.09;12.07;100907.00;4836830;29;20513;-80
2021/06/19 06:59:22;;;;;;;5.07;2.25;;;;;;;47.19;12.26;100901.84;4867675;29;20045;-81
2021/06/19 07:01:48;;;;;;;5.85;2.38;;;;;;;47.68;12.16;100889.09;4851334;29;20046;-80
2021/06/19 07:04:17;;;;;;;7.22;2.20;;;;;;;47.88;12.28;100888.81;4824594;29;20037;-82
2021/06/19 07:06:43;;;;;;;7.33;2.10;;;;;;;48.48;12.07;100898.81;4870911;29;20056;-82
2021/06/19 07:09:09;;;;;;;4.38;2.30;;;;;;;49.11;11.58;100898.28;4880418;29;20045;-79
2021/06/19 07:11:35;;;;;;;4.90;2.20;;;;;;;49.72;11.04;100897.78;4863772;29;20061;-78
2021/06/19 07:14:01;;;;;;;12.68;2.75;;;;;;;49.64;10.99;100882.47;4872626;29;20057;-80
2021/06/19 07:16:27;;;;;;;5.05;2.30;;;;;;;49.48;11.10;100891.56;4846380;29;20049;-80
2021/06/19 07:18:52;;;;;;;3.72;1.90;;;;;;;49.72;10.52;100875.69;4846661;29;20041;-79
2021/06/19 07:21:19;;;;;;;7.03;2.40;;;;;;;49.65;10.68;100872.25;4830206;29;20050;-81
2021/06/19 07:23:45;;;;;;;8.18;2.38;;;;;;;50.07;10.30;100869.09;4830206;29;20053;-80
2021/06/19 07:26:11;;;;;;;4.72;2.40;;;;;;;50.46;10.23;100879.34;4842296;29;20137;-80
2021/06/19 07:28:37;;;;;;;7.13;2.50;;;;;;;50.53;10.28;100868.16;4846088;29;20045;-81
2021/06/19 07:31:03;;;;;;;4.72;2.10;;;;;;;50.36;10.02;100879.22;4829926;29;20426;-81
2021/06/19 07:33:29;;;;;;;3.92;2.40;;;;;;;49.92;10.28;100863.31;4829169;29;20049;-81
2021/06/19 07:35:55;;;;;;;5.47;2.80;;;;;;;50.10;10.16;100881.56;4843718;29;20129;-82
2021/06/19 07:38:22;;;;;;;7.10;2.72;;;;;;;50.42;10.37;100879.03;4843942;29;20048;-81
2021/06/19 07:40:49;;;;;;;7.40;2.40;;;;;;;50.64;9.32;100867.19;4844117;29;20045;-80
2021/06/19 07:43:15;;;;;;;11.98;2.55;;;;;;;50.56;9.76;100856.53;4797613;29;20113;-82
2021/06/19 07:45:41;;;;;;;6.90;2.90;;;;;;;51.12;9.33;100870.25;4842352;29;20502;-79
2021/06/19 07:48:07;;;;;;;6.20;2.47;;;;;;;50.84;9.41;100854.69;4842138;29;20132;-82
2021/06/19 07:50:34;;;;;;;7.63;2.88;;;;;;;51.13;9.70;100871.09;4827397;29;20140;-79
2021/06/19 07:52:59;;;;;;;8.05;2.45;;;;;;;51.36;9.25;100872.75;4844099;29;20580;-79
2021/06/19 07:55:25;;;;;;;4.88;2.60;;;;;;;51.82;9.50;100873.19;4843892;29;20046;-88
2021/06/19 07:57:51;;;;;;;5.18;3.35;;;;;;;52.25;9.08;100861.31;4841957;29;20094;-84
2021/06/19 08:00:20;;;;;;;7.30;2.85;;;;;;;52.06;9.29;100861.75;4826748;29;20101;-78
2021/06/19 08:02:48;;;;;;;5.90;3.00;;;;;;;51.90;8.58;100858.00;4826944;29;20042;-80
2021/06/19 08:05:14;;;;;;;6.15;3.00;;;;;;;50.69;9.17;100845.09;4810616;29;20037;-80
2021/06/19 08:07:40;;;;;;;7.78;2.55;;;;;;;50.19;9.32;100855.19;4829856;29;20100;-81
2021/06/19 08:10:10;;;;;;;8.20;2.60;;;;;;;50.00;9.95;100865.66;4861311;29;20670;-83
2021/06/19 08:12:37;;;;;;;6.20;2.95;;;;;;;49.69;9.98;100840.25;4862246;29;20057;-81
2021/06/19 08:15:07;;;;;;;7.45;2.22;;;;;;;49.13;10.09;100829.84;4860881;29;20054;-81
2021/06/19 08:17:33;;;;;;;5.95;2.30;;;;;;;49.32;10.08;100855.34;4851579;29;20090;-79
2021/06/19 08:19:59;;;;;;;8.93;2.50;;;;;;;49.89;9.77;100837.84;4812305;29;20045;-80
2021/06/19 08:22:25;;;;;;;4.97;2.83;;;;;;;50.39;9.13;100837.22;4826863;29;20398;-80
2021/06/19 08:24:50;;;;;;;4.38;2.40;;;;;;;50.90;9.52;100835.13;4842681;29;20136;-82
2021/06/19 08:27:22;;;;;;;6.60;3.15;;;;;;;51.67;8.97;100851.72;4827026;29;20098;-80
2021/06/19 08:29:49;;;;;;;5.57;2.40;;;;;;;51.21;8.86;100846.56;4842321;29;20084;-82
2021/06/19 08:32:16;;;;;;;4.13;2.20;;;;;;;50.90;9.52;100843.44;4841355;29;20041;-80
2021/06/19 08:34:42;;;;;;;7.38;2.67;;;;;;;50.27;9.21;100831.78;4842698;29;20455;-79
2021/06/19 08:37:08;;;;;;;7.75;2.40;;;;;;;48.86;9.91;100830.41;4809066;29;20050;-82
2021/06/19 08:39:35;;;;;;;4.25;2.53;;;;;;;48.21;10.04;100830.34;4841584;29;20498;-83
2021/06/19 08:42:01;;;;;;;5.25;2.40;;;;;;;48.10;10.50;100811.88;4826303;29;20050;-82
2021/06/19 08:44:29;;;;;;;5.47;2.50;;;;;;;48.30;10.04;100824.47;4841330;29;20054;-83
2021/06/19 08:46:56;;;;;;;5.15;2.22;;;;;;;47.90;9.89;100823.22;4825769;29;20042;-79
2021/06/19 08:49:24;;;;;;;5.40;2.25;;;;;;;47.31;11.18;100816.53;4825330;29;20045;-82
2021/06/19 08:51:53;;;;;;;2.53;2.20;;;;;;;46.76;11.00;100823.75;4824261;29;20049;-80
2021/06/19 08:54:21;;;;;;;2.72;2.22;;;;;;;47.49;11.14;100817.53;4824834;29;20045;-79
2021/06/19 08:56:47;;;;;;;3.78;2.65;;;;;;;46.94;11.17;100782.69;4824809;29;20053;-80
2021/06/19 08:59:14;;;;;;;6.03;2.42;;;;;;;48.13;10.55;100808.66;4840924;29;20033;-81
2021/06/19 09:01:41;;;;;;;3.08;2.33;;;;;;;47.53;10.71;100817.88;4840577;29;20049;-81
2021/06/19 09:04:13;;;;;;;5.60;2.50;;;;;;;47.61;10.87;100799.13;4841074;29;20045;-80
2021/06/19 09:06:42;;;;;;;4.90;2.50;;;;;;;47.24;10.59;100799.25;4816588;29;20048;-81
2021/06/19 09:09:08;;;;;;;2.40;2.20;;;;;;;48.14;10.38;100813.09;4825649;29;20049;-78
2021/06/19 09:11:40;;;;;;;3.88;1.90;;;;;;;48.74;9.97;100810.28;4824528;29;20114;-80
2021/06/19 09:14:09;;;;;;;4.22;2.08;;;;;;;49.22;9.72;100816.47;4824556;29;20065;-81
2021/06/19 09:16:36;;;;;;;3.08;2.08;;;;;;;49.09;9.29;100810.19;4829909;29;20139;-81
2021/06/19 09:19:02;;;;;;;3.33;2.15;;;;;;;49.06;9.55;100796.88;4858663;29;20105;-82
2021/06/19 09:21:36;;;;;;;6.88;2.22;;;;;;;49.03;9.57;100768.88;4845668;29;20068;-80
2021/06/19 09:24:03;;;;;;;5.40;2.58;;;;;;;49.17;9.55;100789.63;4861692;29;20448;-81
2021/06/19 09:26:32;;;;;;;3.42;2.05;;;;;;;49.50;9.71;100795.44;4845892;29;20125;-80
2021/06/19 09:29:09;;;;;;;3.78;2.20;;;;;;;50.26;9.13;100796.94;4847778;29;20062;-84
2021/06/19 09:31:40;;;;;;;4.05;2.33;;;;;;;49.90;9.44;100788.91;4847563;29;20041;-84
2021/06/19 09:34:15;;;;;;;5.43;2.22;;;;;;;49.89;9.68;100782.53;4846205;29;20139;-82
2021/06/19 09:36:42;;;;;;;4.38;2.58;;;;;;;48.76;10.36;100791.56;4848409;29;20062;-82
2021/06/19 09:39:09;;;;;;;4.68;2.78;;;;;;;48.74;9.90;100793.72;4864160;29;20486;-82
2021/06/19 09:41:57;;;;;;;4.00;2.40;;;;;;;48.52;9.84;100781.38;4847798;29;20065;-83
2021/06/19 09:44:47;;;;;;;4.10;2.25;;;;;;;48.66;10.13;100790.22;4845714;29;20053;-83
2021/06/19 09:47:19;;;;;;;3.15;2.40;;;;;;;49.20;9.70;100791.03;4842883;29;20050;-81
2021/06/19 09:49:53;;;;;;;2.67;1.95;;;;;;;49.81;9.58;100784.91;4859525;29;20514;-86
2021/06/19 09:52:29;;;;;;;3.05;2.30;;;;;;;49.98;9.50;100782.13;4854535;29;20041;-83
2021/06/19 09:54:57;;;;;;;3.67;2.45;;;;;;;50.07;9.64;100760.38;4847389;29;20079;-85
2021/06/19 09:57:44;;;;;;;5.00;2.28;;;;;;;50.04;9.68;100757.03;4837235;29;20522;-86
2021/06/19 10:00:13;;;;;;;6.70;2.38;;;;;;;49.72;9.24;100767.88;4865513;29;20129;-84
2021/06/19 10:02:41;;;;;;;4.53;2.33;;;;;;;48.43;10.05;100755.28;4837206;29;20382;-86
2021/06/19 10:05:08;;;;;;;3.15;2.10;;;;;;;48.28;10.43;100769.56;4853495;29;20132;-85
2021/06/19 10:07:35;;;;;;;4.82;2.15;;;;;;;47.58;10.75;100763.75;4853806;29;20062;-86
2021/06/19 10:10:06;;;;;;;3.00;2.00;;;;;;;46.95;11.25;100779.69;4836117;29;20045;-86
2021/06/19 10:12:38;;;;;;;2.10;1.70;;;;;;;47.11;10.72;100767.19;4848197;29;20215;-86
2021/06/19 10:15:07;;;;;;;4.20;2.30;;;;;;;46.26;11.12;100728.47;4863014;29;20046;-85
2021/06/19 10:17:36;;;;;;;5.33;2.50;;;;;;;46.92;11.09;100763.66;4850081;29;20049;-85
2021/06/19 10:20:08;;;;;;;4.03;2.10;;;;;;;46.87;10.78;100734.09;4835779;29;20048;-85
2021/06/19 10:22:35;;;;;;;3.28;2.05;;;;;;;46.19;10.79;100733.19;4850859;29;20084;-85
2021/06/19 10:25:09;;;;;;;4.30;1.90;;;;;;;46.17;11.17;100760.91;4865952;29;20569;-87
2021/06/19 10:27:38;;;;;;;6.00;2.20;;;;;;;44.41;11.74;100720.19;4835102;29;20042;-86
2021/06/19 10:30:06;;;;;;;3.93;2.13;;;;;;;42.70;13.40;100724.88;4851145;29;20548;-85
2021/06/19 10:32:44;;;;;;;5.63;2.20;;;;;;;41.17;14.22;100739.00;4834557;29;20358;-84
2021/06/19 10:35:17;;;;;;;4.00;2.13;;;;;;;39.80;15.27;100721.97;4849392;29;20052;-83
2021/06/19 10:37:44;;;;;;;7.93;2.00;;;;;;;38.86;16.66;100740.91;4863520;29;20132;-85
2021/06/19 10:40:29;;;;;;;4.57;2.10;;;;;;;37.98;17.37;100745.38;4865454;29;20201;-86
2021/06/19 10:43:21;;;;;;;2.75;2.00;;;;;;;37.05;18.71;100745.41;4847594;29;20049;-86
2021/06/19 10:45:47;;;;;;;6.45;2.05;;;;;;;36.24;19.14;100720.41;4847280;29;20041;-82
2021/06/19 10:48:19;;;;;;;3.67;2.33;;;;;;;35.76;19.62;100738.78;4833137;29;20037;-85
2021/06/19 10:50:47;;;;;;;4.32;2.38;;;;;;;35.00;20.14;100719.25;4852384;29;20120;-87
2021/06/19 10:53:16;;;;;;;4.93;2.30;;;;;;;34.48;20.81;100753.03;4849609;29;20052;-84
2021/06/19 10:55:42;;;;;;;4.03;2.30;;;;;;;33.90;21.52;100745.88;4835577;29;20049;-84
2021/06/19 10:58:18;;;;;;;4.07;2.20;;;;;;;33.45;21.89;100742.72;4879061;29;20048;-83
2021/06/19 11:00:46;;;;;;;4.35;1.95;;;;;;;33.26;22.27;100748.06;4863658;29;20064;-84
2021/06/19 11:03:13;;;;;;;5.72;2.30;;;;;;;33.03;22.03;100742.91;4882084;29;20041;-84
2021/06/19 11:08:12;;;;;;;5.97;2.30;;;;;;;32.21;23.17;100737.38;4870145;29;20048;-85
2021/06/19 11:10:45;;;;;;;5.18;2.65;;;;;;;32.25;23.92;100744.16;4850398;29;20048;-85
2021/06/19 11:16:26;;;;;;;7.05;2.40;;;;;;;31.77;24.51;100704.34;4847737;29;20576;-85
2021/06/19 11:18:55;;;;;;;6.75;3.63;;;;;;;31.84;24.51;100744.06;4813259;29;20121;-86
2021/06/19 11:21:30;;;;;;;5.10;2.90;;;;;;;31.53;24.80;100735.81;4845654;29;20041;-82
2021/06/19 11:24:00;;;;;;;5.18;2.80;;;;;;;31.43;25.14;100737.59;4861861;29;20498;-85
2021/06/19 11:27:00;;;;;;;4.07;2.50;;;;;;;31.19;25.20;100735.06;4830119;29;20045;-84
2021/06/19 11:29:37;;;;;;;5.15;2.63;;;;;;;31.01;25.40;100715.88;4860418;29;20037;-82
2021/06/19 11:32:25;;;;;;;5.40;2.63;;;;;;;30.93;25.70;100717.38;4829121;29;20041;-83
2021/06/19 11:34:52;;;;;;;5.68;2.65;;;;;;;30.88;25.87;100722.25;4860979;29;20041;-83